Time;durP1;ratioP1;P1;durP2;ratioP2;P2;SDS_P1;SDS_P2;PMS_P1;PMS_P2;Temp;Humidity;BMP_temperature;BMP_pressure;BME280_temperature;BME280_humidity;BME280_pressure;Samples;Min_cycle;Max_cycle;Signal;HPM_P1;HPM_P2
2022/09/01 00:01:56;;;;;;;2.53;2.20;;;;;;;;;;5090319;28;20056;-63
2022/09/01 00:04:25;;;;;;;6.25;1.50;;;;;;;;;;5091522;28;20091;-63
2022/09/01 00:06:58;;;;;;;2.20;1.45;;;;;;;;;;5089774;28;20080;-64
2022/09/01 00:09:24;;;;;;;5.22;1.50;;;;;;;;;;5090673;28;20128;-64
2022/09/01 00:11:52;;;;;;;2.15;1.52;;;;;;;;;;5091708;28;20056;-62
2022/09/01 00:14:20;;;;;;;2.03;1.40;;;;;;;;;;5090986;28;20051;-64
2022/09/01 00:16:56;;;;;;;3.20;1.92;;;;;;;;;;5079179;28;20057;-63
2022/09/01 00:19:23;;;;;;;3.67;2.47;;;;;;;;;;5086897;28;20053;-63
2022/09/01 00:21:49;;;;;;;2.20;1.98;;;;;;;;;;5080153;28;20051;-64
2022/09/01 00:24:16;;;;;;;2.25;1.55;;;;;;;;;;5080646;28;20061;-63
2022/09/01 00:26:43;;;;;;;2.38;1.50;;;;;;;;;;5086795;28;20148;-63
2022/09/01 00:29:09;;;;;;;2.47;1.70;;;;;;;;;;5078631;28;20056;-63
2022/09/01 00:31:36;;;;;;;2.13;1.40;;;;;;;;;;5079512;28;20061;-63
2022/09/01 00:34:02;;;;;;;5.72;1.73;;;;;;;;;;5080481;28;20049;-64
2022/09/01 00:36:28;;;;;;;3.63;1.60;;;;;;;;;;5086677;28;20067;-63
2022/09/01 00:38:55;;;;;;;2.30;1.38;;;;;;;;;;5092161;28;20052;-63
2022/09/01 00:41:23;;;;;;;7.25;1.60;;;;;;;;;;5094828;28;20467;-64
2022/09/01 00:43:51;;;;;;;2.80;1.67;;;;;;;;;;5103219;28;20135;-64
2022/09/01 00:46:19;;;;;;;2.00;1.60;;;;;;;;;;5094871;28;20498;-63
2022/09/01 00:48:51;;;;;;;2.47;1.85;;;;;;;;;;5092455;28;20194;-63
2022/09/01 00:51:19;;;;;;;1.75;1.50;;;;;;;;;;5079879;28;20087;-63
2022/09/01 00:53:46;;;;;;;3.92;1.75;;;;;;;;;;5083499;28;20060;-63
2022/09/01 00:56:12;;;;;;;2.05;1.80;;;;;;;;;;5082030;28;20085;-63
2022/09/01 00:58:39;;;;;;;2.50;1.60;;;;;;;;;;5078889;28;20088;-63
2022/09/01 01:01:06;;;;;;;2.65;1.60;;;;;;;;;;5094600;28;20080;-63
2022/09/01 01:03:33;;;;;;;4.03;1.70;;;;;;;;;;5092834;28;20064;-63
2022/09/01 01:06:02;;;;;;;3.35;1.50;;;;;;;;;;5094525;28;20052;-63
2022/09/01 01:08:34;;;;;;;2.85;1.70;;;;;;;;;;5086257;28;20049;-63
2022/09/01 01:11:06;;;;;;;3.42;1.88;;;;;;;;;;5075137;28;20053;-63
2022/09/01 01:13:47;;;;;;;3.40;1.90;;;;;;;;;;5086224;28;20056;-63
2022/09/01 01:16:14;;;;;;;4.95;1.50;;;;;;;;;;5092678;28;20052;-63
2022/09/01 01:18:42;;;;;;;2.80;1.55;;;;;;;;;;5090550;28;20118;-64
2022/09/01 01:24:01;;;;;;;8.30;1.88;;;;;;;;;;5090398;28;20056;-63
2022/09/01 01:26:27;;;;;;;3.78;1.92;;;;;;;;;;5090610;28;20049;-64
2022/09/01 01:28:54;;;;;;;2.25;1.70;;;;;;;;;;5088784;28;20069;-63
2022/09/01 01:31:22;;;;;;;3.72;1.45;;;;;;;;;;5074252;28;20057;-63
2022/09/01 01:33:50;;;;;;;2.72;1.80;;;;;;;;;;5088487;28;20114;-63
2022/09/01 01:36:20;;;;;;;2.05;1.48;;;;;;;;;;5095105;28;20053;-63
2022/09/01 01:38:47;;;;;;;4.40;1.77;;;;;;;;;;5093925;28;20053;-63
2022/09/01 01:41:16;;;;;;;4.72;1.90;;;;;;;;;;5094949;28;20060;-63
2022/09/01 01:43:42;;;;;;;2.67;1.58;;;;;;;;;;5090843;28;20052;-63
2022/09/01 01:46:09;;;;;;;2.13;1.67;;;;;;;;;;5077127;28;20053;-63
2022/09/01 01:48:38;;;;;;;5.22;1.55;;;;;;;;;;5083373;28;20267;-63
2022/09/01 01:51:04;;;;;;;4.47;1.48;;;;;;;;;;5090442;28;20147;-64
2022/09/01 01:53:31;;;;;;;3.88;1.65;;;;;;;;;;5076207;28;20057;-63
2022/09/01 01:55:58;;;;;;;4.25;1.80;;;;;;;;;;5073668;28;20056;-63
2022/09/01 01:58:27;;;;;;;6.25;2.15;;;;;;;;;;5088263;28;20082;-64
2022/09/01 02:00:54;;;;;;;6.15;1.73;;;;;;;;;;5079448;28;20055;-63
2022/09/01 02:03:23;;;;;;;3.38;1.55;;;;;;;;;;5089386;28;20048;-64
2022/09/01 02:05:51;;;;;;;1.98;1.77;;;;;;;;;;5093113;28;20058;-62
2022/09/01 02:08:19;;;;;;;3.30;1.52;;;;;;;;;;5084078;28;20053;-62
2022/09/01 02:10:47;;;;;;;4.40;1.67;;;;;;;;;;5091640;28;20064;-64
2022/09/01 02:13:15;;;;;;;11.77;1.95;;;;;;;;;;5084198;28;20412;-63
2022/09/01 02:15:46;;;;;;;3.33;1.77;;;;;;;;;;5077922;28;20052;-64
2022/09/01 02:18:19;;;;;;;2.78;1.60;;;;;;;;;;5088182;28;20067;-63
2022/09/01 02:20:49;;;;;;;3.97;1.80;;;;;;;;;;5073675;28;20061;-63
2022/09/01 02:23:16;;;;;;;4.45;1.67;;;;;;;;;;5074468;28;20056;-62
2022/09/01 02:25:44;;;;;;;3.67;1.83;;;;;;;;;;5075148;28;20085;-63
2022/09/01 02:28:33;;;;;;;4.18;1.50;;;;;;;;;;5081945;28;20487;-63
2022/09/01 02:31:02;;;;;;;2.25;1.50;;;;;;;;;;5088483;28;20053;-63
2022/09/01 02:33:30;;;;;;;3.08;1.60;;;;;;;;;;5073424;28;20057;-62
2022/09/01 02:35:58;;;;;;;3.95;1.60;;;;;;;;;;5086224;28;20052;-63
2022/09/01 02:38:28;;;;;;;1.67;1.40;;;;;;;;;;5092237;28;20063;-63
2022/09/01 02:40:55;;;;;;;2.47;1.88;;;;;;;;;;5087072;28;20049;-62
2022/09/01 02:43:22;;;;;;;6.05;1.83;;;;;;;;;;5078599;28;20431;-63
2022/09/01 02:45:54;;;;;;;2.97;1.73;;;;;;;;;;5075005;28;20504;-64
2022/09/01 02:48:31;;;;;;;3.05;1.60;;;;;;;;;;5084827;28;20053;-63
2022/09/01 02:51:00;;;;;;;3.55;1.88;;;;;;;;;;5089799;28;20149;-63
2022/09/01 02:53:27;;;;;;;2.58;1.90;;;;;;;;;;5078201;28;20053;-63
2022/09/01 02:55:57;;;;;;;7.68;2.05;;;;;;;;;;5073435;28;20049;-62
2022/09/01 02:58:28;;;;;;;2.83;1.77;;;;;;;;;;5087370;28;20063;-63
2022/09/01 03:00:55;;;;;;;2.92;1.88;;;;;;;;;;5075003;28;20057;-63
2022/09/01 03:03:22;;;;;;;3.80;2.03;;;;;;;;;;5089224;28;20049;-63
2022/09/01 03:05:55;;;;;;;1.77;1.67;;;;;;;;;;5090641;28;20401;-62
2022/09/01 03:08:23;;;;;;;3.13;1.80;;;;;;;;;;5083222;28;20507;-63
2022/09/01 03:10:50;;;;;;;3.25;1.55;;;;;;;;;;5072744;28;20053;-63
2022/09/01 03:13:18;;;;;;;2.78;1.80;;;;;;;;;;5072791;28;20056;-63
2022/09/01 03:15:44;;;;;;;3.72;2.00;;;;;;;;;;5091653;28;20044;-63
2022/09/01 03:18:11;;;;;;;5.28;1.95;;;;;;;;;;5088624;28;20063;-63
2022/09/01 03:20:42;;;;;;;2.85;2.00;;;;;;;;;;5077578;28;20059;-63
2022/09/01 03:23:09;;;;;;;1.92;1.73;;;;;;;;;;5072663;28;20056;-63
2022/09/01 03:25:36;;;;;;;1.83;1.45;;;;;;;;;;5085688;28;20052;-63
2022/09/01 03:28:03;;;;;;;2.63;1.60;;;;;;;;;;5090642;28;20060;-63
2022/09/01 03:30:31;;;;;;;2.00;1.80;;;;;;;;;;5076658;28;20048;-63
2022/09/01 03:32:58;;;;;;;5.88;2.05;;;;;;;;;;5081003;28;20052;-62
2022/09/01 03:35:25;;;;;;;2.60;1.92;;;;;;;;;;5092190;28;20061;-63
2022/09/01 03:37:52;;;;;;;2.10;1.52;;;;;;;;;;5092525;28;20056;-64
2022/09/01 03:40:18;;;;;;;1.80;1.63;;;;;;;;;;5091187;28;20060;-64
2022/09/01 03:42:44;;;;;;;5.90;1.75;;;;;;;;;;5091711;28;20048;-64
2022/09/01 03:45:14;;;;;;;1.73;1.58;;;;;;;;;;5090823;28;20064;-63
2022/09/01 03:47:42;;;;;;;2.30;2.08;;;;;;;;;;5090458;28;20059;-63
2022/09/01 03:50:19;;;;;;;4.20;1.77;;;;;;;;;;5087655;28;20060;-63
2022/09/01 03:52:48;;;;;;;2.70;1.45;;;;;;;;;;5081998;28;20053;-63
2022/09/01 03:55:18;;;;;;;5.65;1.80;;;;;;;;;;5087492;27;20045;-63
2022/09/01 03:57:46;;;;;;;1.98;1.55;;;;;;;;;;5087156;28;20551;-64
2022/09/01 04:00:19;;;;;;;4.28;1.85;;;;;;;;;;5076769;28;20592;-65
2022/09/01 04:02:49;;;;;;;2.33;1.80;;;;;;;;;;5089943;28;20052;-63
2022/09/01 04:05:27;;;;;;;2.83;1.70;;;;;;;;;;5090840;28;20056;-64
2022/09/01 04:07:55;;;;;;;7.15;1.92;;;;;;;;;;5071815;28;20501;-64
2022/09/01 04:10:21;;;;;;;4.95;1.92;;;;;;;;;;5071814;28;20048;-63
2022/09/01 04:12:48;;;;;;;1.88;1.67;;;;;;;;;;5073396;28;22192;-64
2022/09/01 04:15:18;;;;;;;5.10;1.58;;;;;;;;;;5092023;28;20469;-64
2022/09/01 04:18:08;;;;;;;2.13;1.88;;;;;;;;;;5089165;28;20052;-64
2022/09/01 04:20:48;;;;;;;1.75;1.65;;;;;;;;;;5092130;28;20059;-64
2022/09/01 04:23:28;;;;;;;2.28;1.80;;;;;;;;;;5080445;28;20493;-64
2022/09/01 04:25:56;;;;;;;2.63;1.80;;;;;;;;;;5092194;28;20052;-63
2022/09/01 04:28:25;;;;;;;2.80;1.67;;;;;;;;;;5089399;28;20064;-63
2022/09/01 04:30:54;;;;;;;2.20;1.50;;;;;;;;;;5087695;28;20049;-64
2022/09/01 04:33:26;;;;;;;3.42;1.55;;;;;;;;;;5083101;28;20088;-64
2022/09/01 04:35:55;;;;;;;3.42;1.77;;;;;;;;;;5099516;28;20049;-62
2022/09/01 04:38:23;;;;;;;5.15;1.88;;;;;;;;;;5086011;27;20560;-64
2022/09/01 04:40:50;;;;;;;2.38;1.70;;;;;;;;;;5076226;28;20079;-63
2022/09/01 04:43:17;;;;;;;3.42;1.85;;;;;;;;;;5081147;28;20523;-64
2022/09/01 04:45:44;;;;;;;2.42;1.60;;;;;;;;;;5071673;28;20049;-64
2022/09/01 04:48:10;;;;;;;3.28;1.58;;;;;;;;;;5095342;28;20056;-63
2022/09/01 04:50:39;;;;;;;2.40;1.83;;;;;;;;;;5091434;28;20416;-63
2022/09/01 04:53:10;;;;;;;4.75;2.22;;;;;;;;;;5076007;28;20053;-64
2022/09/01 04:55:42;;;;;;;2.85;1.90;;;;;;;;;;5071894;28;20053;-63
2022/09/01 04:58:11;;;;;;;1.73;1.63;;;;;;;;;;5075304;28;20057;-63
2022/09/01 05:00:39;;;;;;;3.67;2.25;;;;;;;;;;5085769;28;20059;-64
2022/09/01 05:03:06;;;;;;;2.88;1.88;;;;;;;;;;5075463;28;20049;-63
2022/09/01 05:05:43;;;;;;;5.43;1.90;;;;;;;;;;5077900;28;20049;-64
2022/09/01 05:08:12;;;;;;;3.42;1.70;;;;;;;;;;5072799;28;20060;-64
2022/09/01 05:10:54;;;;;;;4.60;2.10;;;;;;;;;;5072504;28;22099;-63
2022/09/01 05:13:22;;;;;;;3.45;2.50;;;;;;;;;;5074504;28;20059;-63
2022/09/01 05:16:00;;;;;;;2.38;1.70;;;;;;;;;;5108470;28;20052;-63
2022/09/01 05:18:27;;;;;;;1.95;1.63;;;;;;;;;;5103441;27;20117;-63
2022/09/01 05:20:54;;;;;;;5.57;2.13;;;;;;;;;;5089611;28;20053;-63
2022/09/01 05:23:20;;;;;;;3.45;2.42;;;;;;;;;;5089555;28;20055;-63
2022/09/01 05:25:48;;;;;;;4.13;2.30;;;;;;;;;;5073470;28;20055;-63
2022/09/01 05:28:17;;;;;;;4.60;2.85;;;;;;;;;;5073976;28;20065;-63
2022/09/01 05:30:45;;;;;;;4.22;1.80;;;;;;;;;;5076738;28;20048;-63
2022/09/01 05:33:15;;;;;;;4.55;2.08;;;;;;;;;;5073954;28;20905;-63
2022/09/01 05:35:54;;;;;;;2.55;2.00;;;;;;;;;;5077732;28;20142;-62
2022/09/01 05:38:21;;;;;;;2.63;1.95;;;;;;;;;;5077287;28;20048;-68
2022/09/01 05:40:54;;;;;;;2.80;1.77;;;;;;;;;;5088392;28;20082;-63
2022/09/01 05:43:22;;;;;;;3.65;2.05;;;;;;;;;;5091421;28;20083;-64
2022/09/01 05:45:48;;;;;;;6.32;2.33;;;;;;;;;;5093601;28;20562;-64
2022/09/01 05:48:38;;;;;;;6.22;2.20;;;;;;;;;;5091957;28;20052;-63
2022/09/01 05:51:05;;;;;;;2.33;1.90;;;;;;;;;;5094036;28;20049;-64
2022/09/01 05:53:54;;;;;;;4.30;2.33;;;;;;;;;;5091896;28;20049;-64
2022/09/01 05:56:23;;;;;;;3.72;1.70;;;;;;;;;;5094091;28;20476;-63
2022/09/01 05:58:50;;;;;;;5.00;1.90;;;;;;;;;;5094093;28;20048;-64
2022/09/01 06:01:39;;;;;;;6.00;2.00;;;;;;;;;;5093519;28;20063;-64
2022/09/01 06:04:08;;;;;;;2.72;2.03;;;;;;;;;;5093224;28;20051;-64
2022/09/01 06:06:43;;;;;;;5.10;2.03;;;;;;;;;;5073102;28;20053;-64
2022/09/01 06:09:29;;;;;;;1.70;1.50;;;;;;;;;;5073035;28;20065;-65
2022/09/01 06:11:56;;;;;;;6.43;1.52;;;;;;;;;;5073703;28;20071;-64
2022/09/01 06:14:23;;;;;;;6.38;1.80;;;;;;;;;;5092874;28;20056;-64
2022/09/01 06:16:51;;;;;;;3.60;1.95;;;;;;;;;;5093683;28;20057;-64
2022/09/01 06:19:19;;;;;;;2.42;2.20;;;;;;;;;;5108031;28;20048;-63
2022/09/01 06:21:46;;;;;;;3.08;1.65;;;;;;;;;;5088454;28;20605;-63
2022/09/01 06:24:13;;;;;;;2.25;1.30;;;;;;;;;;5091233;28;20060;-64
2022/09/01 06:26:40;;;;;;;4.03;1.75;;;;;;;;;;5093860;28;20053;-64
2022/09/01 06:29:09;;;;;;;3.97;1.58;;;;;;;;;;5090531;28;20061;-64
2022/09/01 06:31:38;;;;;;;2.05;1.70;;;;;;;;;;5093687;28;20045;-65
2022/09/01 06:34:06;;;;;;;2.17;1.50;;;;;;;;;;5093543;28;20052;-66
2022/09/01 06:36:35;;;;;;;1.90;1.50;;;;;;;;;;5084227;28;20495;-63
2022/09/01 06:39:02;;;;;;;2.58;1.48;;;;;;;;;;5074340;28;20539;-65
2022/09/01 06:41:30;;;;;;;1.73;1.42;;;;;;;;;;5078188;28;20600;-64
2022/09/01 06:43:56;;;;;;;2.50;1.50;;;;;;;;;;5084792;28;20071;-64
2022/09/01 06:46:24;;;;;;;1.75;1.55;;;;;;;;;;5075242;28;20487;-64
2022/09/01 06:48:52;;;;;;;3.15;1.63;;;;;;;;;;5077820;28;20564;-64
2022/09/01 06:51:19;;;;;;;6.43;1.55;;;;;;;;;;5090050;28;20067;-63
2022/09/01 06:53:51;;;;;;;2.35;1.20;;;;;;;;;;5091190;28;20511;-63
2022/09/01 06:56:18;;;;;;;4.28;1.98;;;;;;;;;;5092129;28;20063;-65
2022/09/01 06:58:47;;;;;;;2.30;1.60;;;;;;;;;;5088659;28;20056;-64
2022/09/01 07:01:16;;;;;;;6.30;1.60;;;;;;;;;;5085939;28;20132;-63
2022/09/01 07:03:43;;;;;;;3.85;1.73;;;;;;;;;;5073106;28;20572;-62
2022/09/01 07:06:10;;;;;;;2.25;1.52;;;;;;;;;;5095750;28;20102;-62
2022/09/01 07:08:57;;;;;;;1.63;1.38;;;;;;;;;;5092335;28;20586;-62
2022/09/01 07:11:44;;;;;;;2.92;1.40;;;;;;;;;;5091320;28;20921;-64
2022/09/01 07:14:30;;;;;;;2.88;1.20;;;;;;;;;;5078919;28;20060;-63
2022/09/01 07:16:57;;;;;;;4.85;1.60;;;;;;;;;;5072501;28;20059;-63
2022/09/01 07:19:45;;;;;;;2.63;1.80;;;;;;;;;;5082053;28;20053;-63
2022/09/01 07:22:15;;;;;;;3.75;1.48;;;;;;;;;;5092637;28;20063;-63
2022/09/01 07:25:01;;;;;;;5.10;1.30;;;;;;;;;;5091200;28;20514;-64
2022/09/01 07:27:49;;;;;;;3.75;1.40;;;;;;;;;;5084027;28;20111;-63
2022/09/01 07:30:19;;;;;;;1.85;1.10;;;;;;;;;;5072737;28;20080;-63
2022/09/01 07:33:10;;;;;;;3.60;1.27;;;;;;;;;;5074320;28;20057;-63
2022/09/01 07:35:57;;;;;;;2.60;1.40;;;;;;;;;;5072617;28;20183;-64
2022/09/01 07:38:44;;;;;;;1.70;1.13;;;;;;;;;;5082460;28;20063;-64
2022/09/01 07:41:33;;;;;;;3.42;1.50;;;;;;;;;;5091585;28;20484;-63
2022/09/01 07:44:20;;;;;;;4.80;2.38;;;;;;;;;;5091614;28;20075;-64
2022/09/01 07:46:50;;;;;;;2.95;1.77;;;;;;;;;;5080561;28;20064;-65
2022/09/01 07:49:37;;;;;;;1.50;1.40;;;;;;;;;;5081357;28;20053;-65
2022/09/01 07:52:24;;;;;;;1.27;1.02;;;;;;;;;;5071851;28;20057;-64
2022/09/01 07:54:51;;;;;;;8.80;1.92;;;;;;;;;;5079600;28;20463;-65
2022/09/01 07:57:18;;;;;;;6.40;1.60;;;;;;;;;;5092597;28;20048;-65
2022/09/01 07:59:44;;;;;;;3.05;1.38;;;;;;;;;;5089958;28;20068;-64
2022/09/01 08:02:11;;;;;;;5.13;1.67;;;;;;;;;;5076185;28;20495;-65
2022/09/01 08:04:38;;;;;;;3.28;1.10;;;;;;;;;;5092245;28;20053;-65
2022/09/01 08:07:05;;;;;;;3.38;1.40;;;;;;;;;;5091106;28;20088;-64
2022/09/01 08:09:31;;;;;;;6.60;1.45;;;;;;;;;;5092298;28;20056;-66
2022/09/01 08:12:04;;;;;;;6.22;1.38;;;;;;;;;;5092114;28;20063;-64
2022/09/01 08:14:32;;;;;;;2.05;1.27;;;;;;;;;;5091440;28;20057;-64
2022/09/01 08:16:59;;;;;;;1.77;1.02;;;;;;;;;;5092405;28;20110;-65
2022/09/01 08:19:42;;;;;;;2.30;1.15;;;;;;;;;;5092023;28;20063;-64
2022/09/01 08:22:09;;;;;;;4.80;1.20;;;;;;;;;;5089996;28;20055;-65
2022/09/01 08:24:37;;;;;;;2.53;1.17;;;;;;;;;;5088921;28;20432;-63
2022/09/01 08:27:03;;;;;;;1.60;1.23;;;;;;;;;;5100513;28;20471;-64
2022/09/01 08:29:29;;;;;;;3.00;1.30;;;;;;;;;;5089195;27;20066;-64
2022/09/01 08:31:58;;;;;;;3.25;1.55;;;;;;;;;;5091788;28;20159;-64
2022/09/01 08:34:24;;;;;;;3.28;1.30;;;;;;;;;;5090257;28;20056;-63
2022/09/01 08:36:52;;;;;;;3.45;0.93;;;;;;;;;;5090294;28;20055;-63
2022/09/01 08:39:18;;;;;;;2.80;1.20;;;;;;;;;;5084905;28;20059;-63
2022/09/01 08:41:57;;;;;;;3.45;1.48;;;;;;;;;;5091700;28;20079;-64
2022/09/01 08:44:24;;;;;;;2.10;1.40;;;;;;;;;;5087084;28;20053;-64
2022/09/01 08:46:55;;;;;;;3.15;1.30;;;;;;;;;;5086370;28;20055;-63
2022/09/01 08:49:22;;;;;;;3.42;0.93;;;;;;;;;;5089674;28;20048;-62
2022/09/01 08:51:51;;;;;;;6.55;0.95;;;;;;;;;;5093455;28;20056;-62
2022/09/01 08:54:23;;;;;;;5.68;0.98;;;;;;;;;;5088215;28;20048;-63
2022/09/01 08:56:59;;;;;;;1.88;1.00;;;;;;;;;;5079904;28;20384;-64
2022/09/01 08:59:26;;;;;;;5.40;1.05;;;;;;;;;;5086668;28;20140;-65
2022/09/01 09:01:55;;;;;;;1.85;1.10;;;;;;;;;;5074318;28;20057;-65
2022/09/01 09:04:46;;;;;;;0.95;0.90;;;;;;;;;;5082577;28;20190;-65
2022/09/01 09:07:21;;;;;;;3.65;0.98;;;;;;;;;;5093085;28;20052;-65
2022/09/01 09:10:09;;;;;;;2.45;1.00;;;;;;;;;;5094914;28;20052;-66
2022/09/01 09:12:43;;;;;;;1.65;1.00;;;;;;;;;;5085838;28;20045;-67
2022/09/01 09:15:22;;;;;;;1.30;0.80;;;;;;;;;;5089920;28;20495;-66
2022/09/01 09:17:58;;;;;;;7.35;1.25;;;;;;;;;;5093842;28;20053;-65
2022/09/01 09:20:26;;;;;;;1.55;0.85;;;;;;;;;;5094317;28;20053;-66
2022/09/01 09:22:53;;;;;;;1.60;0.80;;;;;;;;;;5095015;28;20084;-65
2022/09/01 09:25:20;;;;;;;2.03;0.70;;;;;;;;;;5095757;28;20511;-65
2022/09/01 09:27:47;;;;;;;8.18;1.00;;;;;;;;;;5076943;28;20577;-65
2022/09/01 09:30:18;;;;;;;3.75;0.98;;;;;;;;;;5087693;28;20064;-64
2022/09/01 09:32:47;;;;;;;1.42;0.93;;;;;;;;;;5095890;27;20073;-64
2022/09/01 09:35:35;;;;;;;1.50;1.00;;;;;;;;;;5077987;28;20055;-65
2022/09/01 09:38:17;;;;;;;1.80;0.70;;;;;;;;;;5073766;28;20491;-66
2022/09/01 09:41:00;;;;;;;3.00;0.70;;;;;;;;;;5094019;28;20083;-65
2022/09/01 09:43:49;;;;;;;1.27;0.63;;;;;;;;;;5089275;27;20053;-65
2022/09/01 09:46:18;;;;;;;1.42;0.80;;;;;;;;;;5073853;28;20055;-65
2022/09/01 09:49:09;;;;;;;5.93;1.50;;;;;;;;;;5076050;28;20055;-64
2022/09/01 09:51:41;;;;;;;2.22;0.80;;;;;;;;;;5094233;28;20045;-65
2022/09/01 09:54:13;;;;;;;1.83;0.80;;;;;;;;;;5110543;27;20057;-64
2022/09/01 09:56:40;;;;;;;2.53;0.77;;;;;;;;;;5087965;28;20063;-66
2022/09/01 09:59:17;;;;;;;2.20;0.70;;;;;;;;;;5077831;28;20060;-65
2022/09/01 10:02:22;;;;;;;1.17;0.70;;;;;;;;;;5092342;28;20492;-66
2022/09/01 10:04:53;;;;;;;5.10;1.02;;;;;;;;;;5073575;28;20049;-64
2022/09/01 10:07:24;;;;;;;3.65;0.60;;;;;;;;;;5082835;28;20499;-65
2022/09/01 10:09:52;;;;;;;0.77;0.52;;;;;;;;;;5091168;28;20474;-65
2022/09/01 10:12:18;;;;;;;0.93;0.65;;;;;;;;;;5092582;28;20054;-66
2022/09/01 10:14:53;;;;;;;2.28;0.60;;;;;;;;;;5086996;28;20060;-66
2022/09/01 10:17:24;;;;;;;1.08;0.70;;;;;;;;;;5073711;28;20059;-65
2022/09/01 10:19:54;;;;;;;0.75;0.73;;;;;;;;;;5090120;28;20059;-66
2022/09/01 10:22:21;;;;;;;1.30;0.82;;;;;;;;;;5093010;28;20055;-66
2022/09/01 10:24:51;;;;;;;1.85;0.85;;;;;;;;;;5092284;28;20057;-65
2022/09/01 10:27:19;;;;;;;3.15;0.75;;;;;;;;;;5089329;28;20045;-65
2022/09/01 10:29:48;;;;;;;2.65;0.80;;;;;;;;;;5084005;28;20089;-66
2022/09/01 10:32:18;;;;;;;1.00;0.82;;;;;;;;;;5092653;28;20048;-66
2022/09/01 10:35:07;;;;;;;5.00;1.10;;;;;;;;;;5093506;28;20069;-64
2022/09/01 10:37:33;;;;;;;0.68;0.68;;;;;;;;;;5092840;28;20056;-64
2022/09/01 10:40:15;;;;;;;2.17;0.93;;;;;;;;;;5093060;28;20071;-65
2022/09/01 10:42:52;;;;;;;1.20;0.90;;;;;;;;;;5093069;28;20056;-65
2022/09/01 10:45:30;;;;;;;0.63;0.63;;;;;;;;;;5092472;28;20053;-65
2022/09/01 10:48:18;;;;;;;2.55;0.80;;;;;;;;;;5091772;28;20049;-64
2022/09/01 10:51:11;;;;;;;1.38;0.95;;;;;;;;;;5091410;28;20110;-66
2022/09/01 10:53:47;;;;;;;2.60;0.90;;;;;;;;;;5072619;28;20060;-66
2022/09/01 10:56:34;;;;;;;1.00;0.68;;;;;;;;;;5077153;28;20052;-65
2022/09/01 10:59:06;;;;;;;3.05;0.77;;;;;;;;;;5084664;28;20064;-64
2022/09/01 11:01:53;;;;;;;0.82;0.80;;;;;;;;;;5087302;28;20492;-65
2022/09/01 11:04:39;;;;;;;1.23;0.60;;;;;;;;;;5093118;28;20056;-64
2022/09/01 11:07:12;;;;;;;2.13;1.00;;;;;;;;;;5092366;28;20139;-64
2022/09/01 11:09:43;;;;;;;1.38;0.75;;;;;;;;;;5089684;28;20061;-64
2022/09/01 11:12:19;;;;;;;1.65;0.82;;;;;;;;;;5075113;28;20049;-65
2022/09/01 11:15:05;;;;;;;1.98;0.98;;;;;;;;;;5087871;28;20110;-64
2022/09/01 11:17:35;;;;;;;4.65;0.80;;;;;;;;;;5071806;28;20056;-66
2022/09/01 11:20:10;;;;;;;3.22;0.93;;;;;;;;;;5087981;28;20437;-65
2022/09/01 11:22:36;;;;;;;;;;;;;;;;;;5091132;28;20530;-67
2022/09/01 11:25:06;;;;;;;0.93;0.63;;;;;;;;;;5091027;28;44938;-67
2022/09/01 11:27:46;;;;;;;2.05;0.70;;;;;;;;;;5086646;28;20056;-66
2022/09/01 11:30:30;;;;;;;2.90;0.65;;;;;;;;;;5092118;28;20060;-66
2022/09/01 11:33:00;;;;;;;1.15;0.70;;;;;;;;;;5091285;28;20052;-67
2022/09/01 11:35:27;;;;;;;4.00;1.35;;;;;;;;;;5091625;28;20062;-67
2022/09/01 11:37:55;;;;;;;2.58;1.15;;;;;;;;;;5091607;28;20542;-66
2022/09/01 11:40:26;;;;;;;1.13;0.73;;;;;;;;;;5092571;28;20059;-67
2022/09/01 11:43:00;;;;;;;2.60;0.70;;;;;;;;;;5080639;28;20175;-66
2022/09/01 11:45:31;;;;;;;1.35;0.80;;;;;;;;;;5072277;28;20060;-66
2022/09/01 11:48:00;;;;;;;2.28;0.52;;;;;;;;;;5090270;28;20057;-65
2022/09/01 11:50:31;;;;;;;1.00;0.70;;;;;;;;;;5091301;28;20045;-65
2022/09/01 11:53:06;;;;;;;0.52;0.45;;;;;;;;;;5092344;28;20056;-66
2022/09/01 11:55:33;;;;;;;;;;;;;;;;;;5080503;28;20140;-65
2022/09/01 11:57:59;;;;;;;5.50;0.70;;;;;;;;;;5082944;28;45948;-66
2022/09/01 12:00:30;;;;;;;1.83;0.88;;;;;;;;;;5081103;28;20048;-66
2022/09/01 12:02:57;;;;;;;0.40;0.40;;;;;;;;;;5071341;28;20405;-66
2022/09/01 12:05:28;;;;;;;1.05;0.70;;;;;;;;;;5074863;28;20076;-67
2022/09/01 12:07:55;;;;;;;7.68;0.70;;;;;;;;;;5085493;28;20048;-68
2022/09/01 12:10:27;;;;;;;1.55;0.90;;;;;;;;;;5074376;28;20049;-69
2022/09/01 12:13:20;;;;;;;2.15;0.70;;;;;;;;;;5104063;28;20053;-67
2022/09/01 12:16:00;;;;;;;1.23;0.60;;;;;;;;;;5088006;27;20080;-65
2022/09/01 12:18:46;;;;;;;4.80;1.67;;;;;;;;;;5090473;28;20055;-66
2022/09/01 12:21:19;;;;;;;1.10;0.75;;;;;;;;;;5091734;28;20076;-65
2022/09/01 12:23:45;;;;;;;12.02;1.02;;;;;;;;;;5084684;28;20057;-66
2022/09/01 12:26:13;;;;;;;2.20;0.52;;;;;;;;;;5074423;28;20053;-66
2022/09/01 12:28:40;;;;;;;1.00;0.60;;;;;;;;;;5079435;28;20057;-65
2022/09/01 12:31:12;;;;;;;1.05;0.60;;;;;;;;;;5087694;28;20049;-64
2022/09/01 12:33:41;;;;;;;2.72;1.00;;;;;;;;;;5093664;28;20059;-66
2022/09/01 12:36:18;;;;;;;4.75;1.23;;;;;;;;;;5097564;28;20056;-67
2022/09/01 12:38:44;;;;;;;0.73;0.63;;;;;;;;;;5093664;28;20497;-67
2022/09/01 12:41:30;;;;;;;3.72;1.02;;;;;;;;;;5096902;28;20052;-67
2022/09/01 12:44:17;;;;;;;2.70;0.80;;;;;;;;;;5095377;28;20055;-65
2022/09/01 12:46:44;;;;;;;1.23;0.68;;;;;;;;;;5077460;28;20059;-67
2022/09/01 12:49:16;;;;;;;6.97;1.38;;;;;;;;;;5092295;28;20542;-67
2022/09/01 12:51:42;;;;;;;2.35;0.88;;;;;;;;;;5096389;28;20191;-68
2022/09/01 12:54:10;;;;;;;1.75;0.68;;;;;;;;;;5085619;28;20060;-66
2022/09/01 12:56:38;;;;;;;1.13;0.50;;;;;;;;;;5094435;28;20056;-66
2022/09/01 12:59:11;;;;;;;0.50;0.50;;;;;;;;;;5094684;28;20090;-66
2022/09/01 13:01:43;;;;;;;0.98;0.70;;;;;;;;;;5085060;28;22222;-65
2022/09/01 13:04:23;;;;;;;1.00;0.75;;;;;;;;;;5078426;28;20057;-65
2022/09/01 13:06:51;;;;;;;0.98;0.80;;;;;;;;;;5088160;28;20053;-65
2022/09/01 13:09:17;;;;;;;2.90;0.80;;;;;;;;;;5086485;28;20554;-65
2022/09/01 13:11:46;;;;;;;1.77;0.60;;;;;;;;;;5085297;28;20160;-65
2022/09/01 13:14:33;;;;;;;3.15;0.80;;;;;;;;;;5081930;28;20049;-65
2022/09/01 13:16:59;;;;;;;0.80;0.60;;;;;;;;;;5087833;28;20059;-65
2022/09/01 13:19:25;;;;;;;3.17;1.15;;;;;;;;;;5087559;28;20053;-65
2022/09/01 13:21:55;;;;;;;1.65;0.60;;;;;;;;;;5084492;28;20060;-66
2022/09/01 13:24:22;;;;;;;4.53;1.25;;;;;;;;;;5088393;28;20055;-65
2022/09/01 13:26:55;;;;;;;2.00;0.85;;;;;;;;;;5096434;28;20052;-65
2022/09/01 13:29:42;;;;;;;2.17;0.98;;;;;;;;;;5097287;28;20368;-66
2022/09/01 13:32:08;;;;;;;1.95;0.73;;;;;;;;;;5088473;28;20523;-66
2022/09/01 13:34:45;;;;;;;2.25;0.93;;;;;;;;;;5098747;28;20048;-65
2022/09/01 13:37:11;;;;;;;0.90;0.70;;;;;;;;;;5088836;28;20502;-64
2022/09/01 13:39:37;;;;;;;3.63;1.38;;;;;;;;;;5095497;28;20055;-65
2022/09/01 13:42:04;;;;;;;3.33;0.70;;;;;;;;;;5088133;28;20055;-67
2022/09/01 13:44:32;;;;;;;1.15;1.05;;;;;;;;;;5092137;28;20136;-66
2022/09/01 13:46:59;;;;;;;2.63;0.90;;;;;;;;;;5093147;28;20045;-65
2022/09/01 13:49:45;;;;;;;4.93;1.00;;;;;;;;;;5091597;28;20071;-67
2022/09/01 13:52:32;;;;;;;0.93;0.80;;;;;;;;;;5093559;28;20044;-66
2022/09/01 13:54:58;;;;;;;2.95;1.00;;;;;;;;;;5081984;28;20049;-66
2022/09/01 13:57:24;;;;;;;2.45;1.00;;;;;;;;;;5090327;28;20052;-64
2022/09/01 13:59:50;;;;;;;2.83;1.02;;;;;;;;;;5084426;28;20049;-65
2022/09/01 14:02:17;;;;;;;0.88;0.75;;;;;;;;;;5087061;28;20060;-67
2022/09/01 14:04:44;;;;;;;3.05;1.00;;;;;;;;;;5092768;28;20053;-66
2022/09/01 14:07:10;;;;;;;2.85;0.93;;;;;;;;;;5099488;28;20489;-67
2022/09/01 14:09:36;;;;;;;3.70;0.80;;;;;;;;;;5091732;28;20056;-66
2022/09/01 14:12:05;;;;;;;2.72;0.70;;;;;;;;;;5092618;28;20522;-64
2022/09/01 14:14:32;;;;;;;0.95;0.85;;;;;;;;;;5093360;28;20049;-64
2022/09/01 14:17:18;;;;;;;1.50;0.98;;;;;;;;;;5092787;28;20091;-65
2022/09/01 14:19:48;;;;;;;1.13;0.80;;;;;;;;;;5092602;28;20090;-67
2022/09/01 14:22:16;;;;;;;1.65;0.80;;;;;;;;;;5093009;28;20056;-68
2022/09/01 14:24:42;;;;;;;1.80;0.77;;;;;;;;;;5090507;28;20048;-68
2022/09/01 14:27:10;;;;;;;1.25;0.90;;;;;;;;;;5092761;28;20049;-67
2022/09/01 14:29:36;;;;;;;2.78;0.80;;;;;;;;;;5091957;28;20060;-68
2022/09/01 14:32:02;;;;;;;5.00;1.10;;;;;;;;;;5089318;28;20044;-66
2022/09/01 14:34:29;;;;;;;1.00;0.93;;;;;;;;;;5084034;28;20049;-67
2022/09/01 14:36:56;;;;;;;1.52;0.85;;;;;;;;;;5090267;28;20048;-67
2022/09/01 14:39:23;;;;;;;1.73;0.80;;;;;;;;;;5087684;28;20052;-67
2022/09/01 14:41:49;;;;;;;1.25;1.08;;;;;;;;;;5089907;28;20079;-65
2022/09/01 14:44:16;;;;;;;0.95;0.90;;;;;;;;;;5092770;28;20052;-68
2022/09/01 14:46:42;;;;;;;2.10;0.80;;;;;;;;;;5090685;28;20143;-67
2022/09/01 14:49:10;;;;;;;0.82;0.77;;;;;;;;;;5090784;28;20055;-67
2022/09/01 14:51:37;;;;;;;2.50;0.73;;;;;;;;;;5089575;28;20048;-65
2022/09/01 14:54:23;;;;;;;3.00;0.80;;;;;;;;;;5087089;28;20523;-65
2022/09/01 14:56:50;;;;;;;2.05;0.80;;;;;;;;;;5089910;28;20056;-66
2022/09/01 14:59:36;;;;;;;1.38;0.80;;;;;;;;;;5090070;28;20486;-66
2022/09/01 15:02:03;;;;;;;4.15;1.50;;;;;;;;;;5092965;28;20079;-67
2022/09/01 15:04:30;;;;;;;1.10;0.80;;;;;;;;;;5085691;28;20076;-65
2022/09/01 15:06:57;;;;;;;1.92;1.10;;;;;;;;;;5084404;28;20567;-67
2022/09/01 15:09:23;;;;;;;1.80;0.75;;;;;;;;;;5080931;28;20088;-67
2022/09/01 15:11:51;;;;;;;2.40;0.80;;;;;;;;;;5092593;28;20061;-67